Time;durP1;ratioP1;P1;durP2;ratioP2;P2;SDS_P1;SDS_P2;PMS_P1;PMS_P2;Temp;Humidity;BMP_temperature;BMP_pressure;BME280_temperature;BME280_humidity;BME280_pressure;Samples;Min_cycle;Max_cycle;Signal;HPM_P1;HPM_P2
2021/04/29 00:01:23;;;;;;;19.35;11.02;;;9.70;99.90;;;;;;5113073;28;20127;-53
2021/04/29 00:03:49;;;;;;;18.38;9.43;;;9.70;99.90;;;;;;5112785;28;20127;-53
2021/04/29 00:06:15;;;;;;;14.68;10.48;;;9.70;99.90;;;;;;5112885;28;20035;-52
2021/04/29 00:08:41;;;;;;;13.40;10.23;;;9.70;99.90;;;;;;5113114;28;20096;-54
2021/04/29 00:11:08;;;;;;;17.83;10.57;;;9.60;99.90;;;;;;5113078;28;20489;-53
2021/04/29 00:13:35;;;;;;;15.07;10.63;;;9.60;99.90;;;;;;5112765;28;20089;-54
2021/04/29 00:16:01;;;;;;;20.40;10.57;;;9.60;99.90;;;;;;5112814;28;20116;-53
2021/04/29 00:18:27;;;;;;;17.63;11.20;;;9.60;99.90;;;;;;5112795;28;20372;-53
2021/04/29 00:20:55;;;;;;;13.90;10.48;;;9.50;99.90;;;;;;5113309;28;20182;-53
2021/04/29 00:23:23;;;;;;;20.52;11.05;;;9.50;99.90;;;;;;5112936;28;20541;-53
2021/04/29 00:25:48;;;;;;;20.85;11.68;;;9.50;99.90;;;;;;5112772;28;20043;-54
2021/04/29 00:28:14;;;;;;;21.20;11.65;;;9.50;99.90;;;;;;5112724;28;20391;-53
2021/04/29 00:30:40;;;;;;;18.17;11.13;;;9.50;99.90;;;;;;5112431;28;20075;-54
2021/04/29 00:33:06;;;;;;;17.40;11.23;;;9.60;99.90;;;;;;5112425;28;20436;-52
2021/04/29 00:35:31;;;;;;;14.80;10.77;;;9.60;99.90;;;;;;5112575;28;20433;-54
2021/04/29 00:37:57;;;;;;;18.52;11.57;;;9.60;99.90;;;;;;5112254;28;20076;-53
2021/04/29 00:40:23;;;;;;;21.00;11.95;;;9.60;99.90;;;;;;5112525;28;20040;-54
2021/04/29 00:42:48;;;;;;;16.60;11.43;;;9.50;99.90;;;;;;5112402;28;20051;-53
2021/04/29 00:45:14;;;;;;;18.15;12.10;;;9.60;99.90;;;;;;5112458;28;20465;-52
2021/04/29 00:47:40;;;;;;;18.90;12.05;;;9.50;99.90;;;;;;5112368;28;20035;-53
2021/04/29 00:50:08;;;;;;;24.88;13.48;;;9.60;99.90;;;;;;5112447;28;20035;-53
2021/04/29 00:52:34;;;;;;;17.42;12.07;;;9.60;99.90;;;;;;5112493;28;20392;-54
2021/04/29 00:55:00;;;;;;;21.73;13.10;;;9.60;99.90;;;;;;5112441;28;20130;-53
2021/04/29 00:57:26;;;;;;;15.32;12.30;;;9.50;99.90;;;;;;5112163;28;20542;-54
2021/04/29 00:59:56;;;;;;;18.90;13.52;;;9.50;99.90;;;;;;5112377;28;20044;-53
2021/04/29 01:02:24;;;;;;;17.58;11.70;;;9.50;99.90;;;;;;5112062;28;20044;-53
2021/04/29 01:05:10;;;;;;;24.38;13.63;;;9.40;99.90;;;;;;5112356;28;20051;-54
2021/04/29 01:07:40;;;;;;;26.17;12.98;;;9.50;99.90;;;;;;5112233;28;20035;-53
2021/04/29 01:10:14;;;;;;;14.85;12.30;;;9.60;99.90;;;;;;5112035;28;20153;-54
2021/04/29 01:12:42;;;;;;;20.10;12.90;;;9.60;99.90;;;;;;5112099;28;20089;-54
2021/04/29 01:15:09;;;;;;;19.90;12.15;;;9.60;99.90;;;;;;5097860;28;20078;-53
2021/04/29 01:17:37;;;;;;;19.75;13.20;;;9.50;99.90;;;;;;5116721;28;20050;-53
2021/04/29 01:20:12;;;;;;;17.50;12.52;;;9.60;99.90;;;;;;5116227;28;20857;-53
2021/04/29 01:22:43;;;;;;;20.83;12.10;;;9.60;99.90;;;;;;5116097;28;20075;-53
2021/04/29 01:25:13;;;;;;;18.73;11.90;;;9.60;99.90;;;;;;5115967;28;20048;-53
2021/04/29 01:27:39;;;;;;;21.02;12.00;;;9.60;99.90;;;;;;5116115;28;20043;-54
2021/04/29 01:30:09;;;;;;;15.60;12.32;;;9.60;99.90;;;;;;5115793;28;20044;-54
2021/04/29 01:32:35;;;;;;;;;;;9.70;99.90;;;;;;5116254;28;20039;-53
2021/04/29 01:35:02;;;;;;;23.48;13.55;;;9.60;99.90;;;;;;5115904;28;20284;-53
2021/04/29 01:37:28;;;;;;;16.40;11.80;;;9.60;99.90;;;;;;5115784;28;20039;-52
2021/04/29 01:39:54;;;;;;;20.80;11.73;;;9.60;99.90;;;;;;5115575;28;20127;-51
2021/04/29 01:42:20;;;;;;;20.35;11.75;;;9.70;99.90;;;;;;5115733;28;20114;-53
2021/04/29 01:44:46;;;;;;;18.35;11.85;;;9.70;99.90;;;;;;5115511;28;20035;-53
2021/04/29 01:47:12;;;;;;;22.02;12.50;;;9.70;99.90;;;;;;5115442;28;20039;-54
2021/04/29 01:49:39;;;;;;;15.18;11.27;;;9.70;99.90;;;;;;5115549;28;20066;-53
2021/04/29 01:52:08;;;;;;;23.42;11.88;;;9.70;99.90;;;;;;5115435;28;20050;-53
2021/04/29 01:54:35;;;;;;;20.10;11.85;;;9.70;99.90;;;;;;5115553;28;20047;-52
2021/04/29 01:57:00;;;;;;;20.55;12.63;;;9.70;99.90;;;;;;5115354;28;20043;-50
2021/04/29 01:59:26;;;;;;;20.50;11.10;;;9.80;99.90;;;;;;5115460;28;20043;-52
2021/04/29 02:01:56;;;;;;;15.68;10.85;;;9.70;99.90;;;;;;5115447;28;20047;-53
2021/04/29 02:04:22;;;;;;;16.58;11.32;;;9.60;99.90;;;;;;5115210;28;20065;-53
2021/04/29 02:06:48;;;;;;;20.13;12.15;;;9.70;99.90;;;;;;5115127;28;20036;-52
2021/04/29 02:09:14;;;;;;;16.95;11.27;;;9.70;99.90;;;;;;5115056;28;20085;-54
2021/04/29 02:12:01;;;;;;;19.20;11.20;;;9.70;99.90;;;;;;5115280;28;20039;-54
2021/04/29 02:14:37;;;;;;;18.33;11.70;;;9.70;99.90;;;;;;5114982;28;20075;-53
2021/04/29 02:17:09;;;;;;;18.63;11.82;;;9.60;99.90;;;;;;5115000;28;20044;-53
2021/04/29 02:19:40;;;;;;;18.23;12.02;;;9.60;99.90;;;;;;5115002;28;20039;-52
2021/04/29 02:22:06;;;;;;;21.48;12.35;;;9.60;99.90;;;;;;5114973;28;20124;-51
2021/04/29 02:24:33;;;;;;;16.75;12.25;;;9.60;99.90;;;;;;5114020;28;20047;-53
2021/04/29 02:27:00;;;;;;;16.52;11.75;;;9.60;99.90;;;;;;5114437;28;20052;-52
2021/04/29 02:29:26;;;;;;;18.73;10.77;;;9.60;99.90;;;;;;5114615;28;20468;-53
2021/04/29 02:31:53;;;;;;;15.85;10.68;;;9.70;99.90;;;;;;5114538;28;20093;-53
2021/04/29 02:34:20;;;;;;;16.52;11.27;;;9.60;99.90;;;;;;5114616;28;20042;-52
2021/04/29 02:36:46;;;;;;;16.08;10.82;;;9.60;99.90;;;;;;5114674;28;20044;-54
2021/04/29 02:39:12;;;;;;;18.38;12.02;;;9.60;99.90;;;;;;5114600;28;20071;-53
2021/04/29 02:41:39;;;;;;;17.33;11.68;;;9.50;99.90;;;;;;5114533;28;20039;-53
2021/04/29 02:44:05;;;;;;;20.38;12.10;;;9.50;99.90;;;;;;5114576;28;20052;-54
2021/04/29 02:46:31;;;;;;;16.02;11.15;;;9.50;99.90;;;;;;5114494;28;20052;-52
2021/04/29 02:48:57;;;;;;;15.45;12.07;;;9.60;99.90;;;;;;5114758;28;20082;-53
2021/04/29 02:51:23;;;;;;;17.05;12.07;;;9.50;99.90;;;;;;5114753;28;20085;-53
2021/04/29 02:53:50;;;;;;;21.55;11.55;;;9.50;99.90;;;;;;5114358;28;20043;-53
2021/04/29 02:56:16;;;;;;;19.25;13.52;;;9.50;99.90;;;;;;5114266;28;20389;-53
2021/04/29 02:58:47;;;;;;;20.25;12.65;;;9.50;99.90;;;;;;5114275;28;20039;-54
2021/04/29 03:01:14;;;;;;;17.83;12.52;;;9.50;99.90;;;;;;5114209;28;20047;-53
2021/04/29 03:03:41;;;;;;;20.55;14.07;;;9.50;99.90;;;;;;5096391;28;20103;-53
2021/04/29 03:06:06;;;;;;;19.20;12.23;;;9.50;99.90;;;;;;5114304;28;20529;-53
2021/04/29 03:08:32;;;;;;;19.83;13.02;;;9.50;99.90;;;;;;5114187;28;20137;-53
2021/04/29 03:10:59;;;;;;;21.95;12.75;;;9.60;99.90;;;;;;5113955;28;20540;-54
2021/04/29 03:13:24;;;;;;;17.73;13.20;;;9.60;99.90;;;;;;5113879;28;20032;-53
2021/04/29 03:15:50;;;;;;;21.95;14.15;;;9.50;99.90;;;;;;5114075;28;20051;-54
2021/04/29 03:18:16;;;;;;;18.52;13.93;;;9.50;99.90;;;;;;5113782;28;20066;-54
2021/04/29 03:20:42;;;;;;;21.42;13.20;;;9.50;99.90;;;;;;5113944;28;20043;-53
2021/04/29 03:23:08;;;;;;;21.45;13.98;;;9.50;99.90;;;;;;5113657;28;20074;-53
2021/04/29 03:25:34;;;;;;;23.98;13.55;;;9.40;99.90;;;;;;5113625;28;20067;-54
2021/04/29 03:28:00;;;;;;;27.70;15.00;;;9.40;99.90;;;;;;5113323;28;20075;-53
2021/04/29 03:30:26;;;;;;;22.42;14.45;;;9.50;99.90;;;;;;5095236;28;20051;-53
2021/04/29 03:32:52;;;;;;;28.73;14.48;;;9.50;99.90;;;;;;5095091;28;20052;-53
2021/04/29 03:35:17;;;;;;;25.85;14.27;;;9.50;99.90;;;;;;5113403;28;20382;-53
2021/04/29 03:37:43;;;;;;;22.88;14.75;;;9.40;99.90;;;;;;5113250;28;20063;-53
2021/04/29 03:40:10;;;;;;;25.65;15.45;;;9.40;99.90;;;;;;5113240;28;20061;-54
2021/04/29 03:42:36;;;;;;;24.33;15.27;;;9.40;99.90;;;;;;5113243;28;20046;-53
2021/04/29 03:45:06;;;;;;;19.52;14.43;;;9.40;99.90;;;;;;5113036;28;20391;-51
2021/04/29 03:47:32;;;;;;;25.20;14.98;;;9.40;99.90;;;;;;5113504;28;20054;-53
2021/04/29 03:49:58;;;;;;;20.70;15.45;;;9.40;99.90;;;;;;5113179;28;20040;-54
2021/04/29 03:52:24;;;;;;;24.67;15.45;;;9.30;99.90;;;;;;5113099;28;20043;-53
2021/04/29 03:54:50;;;;;;;22.08;17.25;;;9.30;99.90;;;;;;5095124;28;20389;-53
2021/04/29 03:57:15;;;;;;;24.75;16.60;;;9.30;99.90;;;;;;5112882;28;20468;-54
2021/04/29 03:59:41;;;;;;;26.13;16.40;;;9.30;99.90;;;;;;5113100;28;20477;-53
2021/04/29 04:02:15;;;;;;;27.08;17.98;;;9.20;99.90;;;;;;5113127;28;20045;-52
2021/04/29 04:04:41;;;;;;;24.60;16.98;;;9.10;99.90;;;;;;5112559;28;20035;-53
2021/04/29 04:07:07;;;;;;;24.95;17.67;;;9.10;99.90;;;;;;5112857;28;20043;-52
2021/04/29 04:09:33;;;;;;;30.55;17.45;;;9.10;99.90;;;;;;5112915;28;20035;-53
2021/04/29 04:11:58;;;;;;;25.58;17.17;;;9.10;99.90;;;;;;5112819;28;20044;-52
2021/04/29 04:14:24;;;;;;;28.98;17.38;;;9.10;99.90;;;;;;5112898;28;20472;-53
2021/04/29 04:16:50;;;;;;;24.17;17.05;;;9.00;99.90;;;;;;5112432;28;20043;-53
2021/04/29 04:19:15;;;;;;;22.73;16.77;;;9.00;99.90;;;;;;5095281;28;20051;-53
2021/04/29 04:21:41;;;;;;;26.60;16.77;;;9.10;99.90;;;;;;5112759;28;20582;-53
2021/04/29 04:24:07;;;;;;;21.45;15.30;;;9.10;99.90;;;;;;5112592;28;20043;-52
2021/04/29 04:26:33;;;;;;;29.75;15.35;;;9.10;99.90;;;;;;5112424;28;20039;-54
2021/04/29 04:28:58;;;;;;;35.40;15.45;;;9.10;99.90;;;;;;5111809;28;20035;-53
2021/04/29 04:31:24;;;;;;;25.88;14.98;;;9.20;99.90;;;;;;5092150;28;20040;-52
2021/04/29 04:33:51;;;;;;;22.10;16.15;;;9.20;99.90;;;;;;5091847;28;20040;-53
2021/04/29 04:36:17;;;;;;;23.25;15.25;;;9.10;99.90;;;;;;5091968;28;20115;-54
2021/04/29 04:38:43;;;;;;;27.15;16.40;;;9.20;99.90;;;;;;5092102;28;20044;-53
2021/04/29 04:41:09;;;;;;;18.98;15.05;;;9.10;99.90;;;;;;5091997;28;20052;-51
2021/04/29 04:43:34;;;;;;;33.42;17.63;;;9.10;99.90;;;;;;5092122;28;20063;-52
2021/04/29 04:46:00;;;;;;;25.27;16.98;;;9.10;99.90;;;;;;5092031;28;20048;-54
2021/04/29 04:48:26;;;;;;;24.60;16.02;;;9.20;99.90;;;;;;5091214;28;20167;-53
2021/04/29 04:50:52;;;;;;;29.92;16.80;;;9.10;99.90;;;;;;5091878;28;20043;-53
2021/04/29 04:53:19;;;;;;;23.67;16.13;;;9.00;99.90;;;;;;5091924;28;20050;-52
2021/04/29 04:55:49;;;;;;;22.63;15.85;;;9.00;99.90;;;;;;5091896;28;20044;-53
2021/04/29 04:58:15;;;;;;;23.25;15.98;;;9.00;99.90;;;;;;5091897;28;20486;-53
2021/04/29 05:00:42;;;;;;;18.98;14.63;;;9.00;99.90;;;;;;5091782;28;20070;-53
2021/04/29 05:03:08;;;;;;;24.67;15.80;;;9.00;99.90;;;;;;5091937;28;20028;-53
2021/04/29 05:05:33;;;;;;;27.52;15.85;;;9.00;99.90;;;;;;5091738;28;20058;-53
2021/04/29 05:08:00;;;;;;;29.02;16.25;;;9.00;99.90;;;;;;5091761;28;20048;-53
2021/04/29 05:10:27;;;;;;;23.85;16.58;;;9.00;99.90;;;;;;5091622;28;20047;-53
2021/04/29 05:12:53;;;;;;;24.77;15.70;;;9.00;99.90;;;;;;5091736;28;20040;-53
2021/04/29 05:15:20;;;;;;;24.42;14.93;;;9.00;99.90;;;;;;5091817;28;20070;-53
2021/04/29 05:17:46;;;;;;;27.27;16.13;;;9.00;99.90;;;;;;5091945;28;20070;-54
2021/04/29 05:20:12;;;;;;;21.85;15.05;;;9.00;99.90;;;;;;5091519;28;20052;-52
2021/04/29 05:22:37;;;;;;;26.08;16.88;;;9.00;99.90;;;;;;5091387;28;20040;-52
2021/04/29 05:25:03;;;;;;;24.50;16.33;;;9.00;99.90;;;;;;5091853;28;20040;-54
2021/04/29 05:27:29;;;;;;;25.67;16.33;;;9.00;99.90;;;;;;5091893;28;20454;-54
2021/04/29 05:29:55;;;;;;;22.20;15.82;;;9.00;99.90;;;;;;5099899;28;20058;-53
2021/04/29 05:32:21;;;;;;;22.15;16.48;;;8.90;99.90;;;;;;5111925;28;20477;-54
2021/04/29 05:34:46;;;;;;;23.17;17.08;;;9.00;99.90;;;;;;5111693;28;20471;-54
2021/04/29 05:37:12;;;;;;;28.95;16.98;;;9.00;99.90;;;;;;5111690;28;20042;-53
2021/04/29 05:39:38;;;;;;;24.85;17.60;;;9.00;99.90;;;;;;5112035;28;20035;-52
2021/04/29 05:42:04;;;;;;;23.33;17.33;;;9.00;99.90;;;;;;5111718;28;20139;-52
2021/04/29 05:44:29;;;;;;;27.52;17.95;;;9.00;99.90;;;;;;5111663;28;20039;-53
2021/04/29 05:46:55;;;;;;;27.15;17.50;;;9.00;99.90;;;;;;5111617;28;20054;-53
2021/04/29 05:49:21;;;;;;;23.17;17.35;;;9.00;99.90;;;;;;5111919;28;20476;-53
2021/04/29 05:51:47;;;;;;;23.48;17.17;;;9.00;99.90;;;;;;5111584;28;20039;-53
2021/04/29 05:54:13;;;;;;;32.75;19.20;;;9.00;99.90;;;;;;5111606;28;20059;-54
2021/04/29 05:56:38;;;;;;;24.45;17.13;;;9.00;99.90;;;;;;5111850;28;20051;-53
2021/04/29 05:59:04;;;;;;;28.08;17.70;;;9.00;99.90;;;;;;5112046;28;20074;-54
2021/04/29 06:01:30;;;;;;;28.30;16.83;;;9.00;99.90;;;;;;5115346;28;20036;-53
2021/04/29 06:03:55;;;;;;;24.15;16.60;;;9.00;99.90;;;;;;5115033;28;20464;-53
2021/04/29 06:06:21;;;;;;;27.92;16.45;;;9.00;99.90;;;;;;5115291;28;20043;-53
2021/04/29 06:08:47;;;;;;;26.13;17.50;;;9.00;99.90;;;;;;5115233;28;20094;-53
2021/04/29 06:11:12;;;;;;;26.00;16.98;;;9.10;99.90;;;;;;5115117;28;20047;-52
2021/04/29 06:13:39;;;;;;;26.55;17.27;;;9.10;99.90;;;;;;5115317;28;20101;-53
2021/04/29 06:16:06;;;;;;;29.08;17.65;;;9.10;99.90;;;;;;5114956;28;20099;-54
2021/04/29 06:18:32;;;;;;;27.85;16.63;;;9.20;99.90;;;;;;5115053;28;20051;-54
2021/04/29 06:20:58;;;;;;;26.50;16.50;;;9.10;99.90;;;;;;5115031;28;20071;-53
2021/04/29 06:23:23;;;;;;;27.13;17.35;;;9.20;99.90;;;;;;5115100;28;20452;-53
2021/04/29 06:25:49;;;;;;;26.48;18.10;;;9.30;99.90;;;;;;5115204;28;20059;-52
2021/04/29 06:28:15;;;;;;;30.75;16.83;;;9.40;99.90;;;;;;5114897;28;20051;-54
2021/04/29 06:30:41;;;;;;;36.13;18.48;;;9.50;99.90;;;;;;5114575;28;20447;-53
2021/04/29 06:33:08;;;;;;;27.48;17.85;;;9.60;99.90;;;;;;5096301;28;20096;-54
2021/04/29 06:35:34;;;;;;;28.90;18.40;;;9.80;99.90;;;;;;5114774;28;20047;-54
2021/04/29 06:38:00;;;;;;;24.38;16.88;;;9.80;99.90;;;;;;5115005;28;20027;-53
2021/04/29 06:40:25;;;;;;;26.02;18.33;;;9.90;99.90;;;;;;5096451;28;20043;-54
2021/04/29 06:42:51;;;;;;;29.80;17.80;;;10.10;99.90;;;;;;5114495;28;20035;-54
2021/04/29 06:45:17;;;;;;;28.95;18.92;;;10.10;99.90;;;;;;5114955;28;20071;-54
2021/04/29 06:47:43;;;;;;;29.23;17.83;;;10.00;99.90;;;;;;5114567;28;20488;-54
2021/04/29 06:50:09;;;;;;;26.50;17.88;;;10.10;99.90;;;;;;5114411;28;20251;-54
2021/04/29 06:52:35;;;;;;;29.60;19.13;;;10.10;99.90;;;;;;5114519;28;20044;-54
2021/04/29 06:55:02;;;;;;;27.65;18.80;;;10.10;99.90;;;;;;5114467;28;20052;-54
2021/04/29 06:57:28;;;;;;;32.00;20.65;;;10.20;99.90;;;;;;5114368;28;20412;-54
2021/04/29 06:59:54;;;;;;;34.63;19.00;;;10.20;99.90;;;;;;5114461;28;20039;-54
2021/04/29 07:02:19;;;;;;;25.88;17.85;;;10.40;99.90;;;;;;5114234;28;20401;-55
2021/04/29 07:04:45;;;;;;;25.40;18.58;;;10.30;99.90;;;;;;5113882;28;20432;-54
2021/04/29 07:07:12;;;;;;;25.02;17.52;;;10.30;99.90;;;;;;5114196;28;20098;-54
2021/04/29 07:09:38;;;;;;;30.38;17.52;;;10.30;99.90;;;;;;5113913;28;20036;-54
2021/04/29 07:12:04;;;;;;;23.63;18.63;;;10.40;99.90;;;;;;5113490;28;20492;-55
2021/04/29 07:14:30;;;;;;;27.05;17.85;;;10.30;99.90;;;;;;5113884;28;20055;-54
2021/04/29 07:16:55;;;;;;;26.08;18.13;;;10.30;99.90;;;;;;5114020;28;20044;-54
2021/04/29 07:19:21;;;;;;;25.55;18.05;;;10.40;99.90;;;;;;5113816;28;20541;-52
2021/04/29 07:21:47;;;;;;;28.58;18.33;;;10.30;99.90;;;;;;5114154;28;20138;-54
2021/04/29 07:24:12;;;;;;;30.83;18.90;;;10.40;99.90;;;;;;5113470;28;20043;-54
2021/04/29 07:26:38;;;;;;;32.53;18.73;;;10.40;99.90;;;;;;5113714;28;20114;-54
2021/04/29 07:29:05;;;;;;;28.75;17.88;;;10.40;99.90;;;;;;5113720;28;20055;-54
2021/04/29 07:31:31;;;;;;;25.40;18.25;;;10.40;99.90;;;;;;5113367;28;20104;-54
2021/04/29 07:33:58;;;;;;;29.50;18.75;;;10.40;99.90;;;;;;5113244;28;20043;-55
2021/04/29 07:36:23;;;;;;;25.23;18.48;;;10.40;99.90;;;;;;5113863;28;20066;-53
2021/04/29 07:38:49;;;;;;;26.83;18.52;;;10.40;99.90;;;;;;5113570;28;20108;-54
2021/04/29 07:41:15;;;;;;;30.55;19.67;;;10.50;99.90;;;;;;5095090;28;20043;-54
2021/04/29 07:43:41;;;;;;;25.35;17.17;;;10.40;99.90;;;;;;5113422;28;20040;-54
2021/04/29 07:46:07;;;;;;;24.70;17.77;;;10.50;99.90;;;;;;5113403;28;20051;-54
2021/04/29 07:48:32;;;;;;;29.95;19.25;;;10.50;99.90;;;;;;5113560;28;20047;-54
2021/04/29 07:51:00;;;;;;;26.67;17.92;;;10.50;99.90;;;;;;5112296;27;20044;-54
2021/04/29 07:53:26;;;;;;;23.08;17.45;;;10.50;99.90;;;;;;5113493;28;20039;-54
2021/04/29 07:55:53;;;;;;;29.90;18.55;;;10.60;99.90;;;;;;5112937;28;20054;-54
2021/04/29 07:58:19;;;;;;;26.58;18.95;;;10.70;99.90;;;;;;5113056;28;20424;-54
2021/04/29 08:00:45;;;;;;;24.90;18.08;;;10.70;99.90;;;;;;5112900;28;20044;-54
2021/04/29 08:03:11;;;;;;;27.70;17.88;;;10.70;99.90;;;;;;5112916;28;20050;-54
2021/04/29 08:05:37;;;;;;;28.75;17.80;;;10.70;99.90;;;;;;5112886;28;20036;-53
2021/04/29 08:08:02;;;;;;;30.73;18.45;;;10.60;99.90;;;;;;5112913;28;20096;-54
2021/04/29 08:10:28;;;;;;;28.42;18.55;;;10.70;99.90;;;;;;5112704;28;20397;-54
2021/04/29 08:12:54;;;;;;;27.85;18.13;;;10.60;99.90;;;;;;5112802;28;20039;-54
2021/04/29 08:15:20;;;;;;;27.02;19.25;;;10.60;99.90;;;;;;5113020;28;20043;-54
2021/04/29 08:17:45;;;;;;;26.83;17.83;;;10.60;99.90;;;;;;5112403;28;20050;-54
2021/04/29 08:20:12;;;;;;;24.05;18.25;;;10.70;99.90;;;;;;5112938;28;20043;-54
2021/04/29 08:22:38;;;;;;;28.50;19.85;;;10.70;99.90;;;;;;5111989;28;20048;-54
2021/04/29 08:25:04;;;;;;;29.00;19.92;;;10.70;99.90;;;;;;5112360;28;20043;-54
2021/04/29 08:27:30;;;;;;;28.77;18.85;;;10.60;99.90;;;;;;5112584;28;20048;-54
2021/04/29 08:29:56;;;;;;;28.25;21.60;;;10.50;99.90;;;;;;5112209;28;20047;-54
2021/04/29 08:32:22;;;;;;;31.15;21.20;;;10.60;99.90;;;;;;5112590;28;20048;-54
2021/04/29 08:34:48;;;;;;;28.23;21.08;;;10.60;99.90;;;;;;5112351;28;20497;-54
2021/04/29 08:37:17;;;;;;;30.35;22.10;;;10.50;99.90;;;;;;5112328;28;20047;-54
2021/04/29 08:39:43;;;;;;;33.80;22.73;;;10.40;99.90;;;;;;5112577;28;20114;-54
2021/04/29 08:42:11;;;;;;;32.00;23.80;;;10.50;99.90;;;;;;5112485;28;20118;-54
2021/04/29 08:44:38;;;;;;;37.45;23.85;;;10.50;99.90;;;;;;5112249;28;20035;-54
2021/04/29 08:47:03;;;;;;;31.35;22.55;;;10.50;99.90;;;;;;5112457;28;20040;-54
2021/04/29 08:49:30;;;;;;;32.80;22.60;;;10.50;99.90;;;;;;5112489;28;20563;-54
2021/04/29 08:51:57;;;;;;;31.45;23.27;;;10.50;99.90;;;;;;5112430;28;20089;-54
2021/04/29 08:54:23;;;;;;;30.77;22.05;;;10.50;99.90;;;;;;5112573;28;20043;-54
2021/04/29 08:56:51;;;;;;;28.88;21.77;;;10.50;99.90;;;;;;5094264;28;20059;-54
2021/04/29 08:59:17;;;;;;;29.35;23.17;;;10.60;99.90;;;;;;5112138;28;20044;-54
2021/04/29 09:01:45;;;;;;;29.20;23.38;;;10.50;99.90;;;;;;5112229;28;20100;-54
2021/04/29 09:04:12;;;;;;;32.88;24.52;;;10.60;99.90;;;;;;5112172;28;20044;-55
2021/04/29 09:06:39;;;;;;;40.42;25.83;;;10.50;99.90;;;;;;5112150;28;20115;-54
2021/04/29 09:09:05;;;;;;;35.45;24.27;;;10.50;99.90;;;;;;5112278;28;20058;-54
2021/04/29 09:11:30;;;;;;;33.90;24.02;;;10.50;99.90;;;;;;5112240;28;20047;-54
2021/04/29 09:14:02;;;;;;;28.77;23.60;;;10.60;99.90;;;;;;5112322;28;20426;-54
2021/04/29 09:16:42;;;;;;;39.42;24.88;;;10.60;99.90;;;;;;5112219;28;20047;-54
2021/04/29 09:19:19;;;;;;;33.70;24.08;;;10.60;99.90;;;;;;5112369;28;20040;-54
2021/04/29 09:21:45;;;;;;;35.08;23.77;;;10.60;99.90;;;;;;5112158;28;20047;-54
2021/04/29 09:24:11;;;;;;;36.58;24.73;;;10.60;99.90;;;;;;5111763;28;20112;-54
2021/04/29 09:26:37;;;;;;;32.97;24.73;;;10.60;99.90;;;;;;5112144;28;20118;-54
2021/04/29 09:29:13;;;;;;;32.47;24.75;;;10.60;99.90;;;;;;5111846;28;20080;-54
2021/04/29 09:31:41;;;;;;;34.75;24.80;;;10.60;99.90;;;;;;5111782;28;20047;-55
2021/04/29 09:34:08;;;;;;;32.70;24.13;;;10.50;99.90;;;;;;5112389;28;20042;-54
2021/04/29 09:36:39;;;;;;;29.52;24.27;;;10.50;99.90;;;;;;5115667;28;20366;-55
2021/04/29 09:39:11;;;;;;;31.60;25.73;;;10.50;99.90;;;;;;5115782;28;20035;-55
2021/04/29 09:41:40;;;;;;;29.08;25.15;;;10.60;99.90;;;;;;5116174;28;20044;-55
2021/04/29 09:44:12;;;;;;;35.10;26.10;;;10.60;99.90;;;;;;5115682;28;20050;-55
2021/04/29 09:46:49;;;;;;;41.22;26.83;;;10.60;99.90;;;;;;5115608;28;20031;-54
2021/04/29 09:49:32;;;;;;;31.17;24.92;;;10.60;99.90;;;;;;5115683;28;20451;-55
2021/04/29 09:51:59;;;;;;;30.92;25.15;;;10.60;99.90;;;;;;5115519;28;20040;-54
2021/04/29 09:54:34;;;;;;;33.67;25.88;;;10.60;99.90;;;;;;5115537;28;20085;-55
2021/04/29 09:57:08;;;;;;;30.83;24.02;;;10.60;99.90;;;;;;5115841;28;20470;-55
2021/04/29 09:59:42;;;;;;;35.58;24.55;;;10.50;99.90;;;;;;5115528;28;20071;-55
2021/04/29 10:02:10;;;;;;;31.38;23.65;;;10.50;99.90;;;;;;5115348;28;20027;-55
2021/04/29 10:04:38;;;;;;;32.63;24.35;;;10.40;99.90;;;;;;5115286;28;20085;-55
2021/04/29 10:07:04;;;;;;;30.55;24.45;;;10.50;99.90;;;;;;5115273;28;20054;-55
2021/04/29 10:09:31;;;;;;;33.90;25.35;;;10.50;99.90;;;;;;5115392;28;20036;-55
2021/04/29 10:12:10;;;;;;;35.25;26.27;;;10.50;99.90;;;;;;5115321;28;20059;-55
2021/04/29 10:14:40;;;;;;;29.03;23.27;;;10.50;99.90;;;;;;5115133;28;20438;-55
2021/04/29 10:17:08;;;;;;;29.98;26.08;;;10.60;99.90;;;;;;5115262;28;20044;-55
2021/04/29 10:19:43;;;;;;;36.28;25.98;;;10.60;99.90;;;;;;5115069;28;20071;-55
2021/04/29 10:22:09;;;;;;;29.65;23.77;;;10.50;99.90;;;;;;5114882;28;20529;-55
2021/04/29 10:24:36;;;;;;;33.63;25.27;;;10.50;99.90;;;;;;5114947;28;20067;-55
2021/04/29 10:27:07;;;;;;;32.90;26.25;;;10.50;99.90;;;;;;5114743;28;20127;-55
2021/04/29 10:29:33;;;;;;;32.10;26.38;;;10.50;99.90;;;;;;5115102;28;20098;-55
2021/04/29 10:32:01;;;;;;;35.13;25.42;;;10.50;99.90;;;;;;5115463;28;20575;-55
2021/04/29 10:34:44;;;;;;;33.75;25.77;;;10.50;99.90;;;;;;5114941;28;20054;-55
2021/04/29 10:37:23;;;;;;;32.88;25.27;;;10.50;99.90;;;;;;5114759;28;20397;-55
2021/04/29 10:39:56;;;;;;;41.10;28.02;;;10.50;99.90;;;;;;5114907;28;20089;-55
2021/04/29 10:42:24;;;;;;;36.55;26.83;;;10.50;99.90;;;;;;5114430;28;20035;-55
2021/04/29 10:44:58;;;;;;;39.28;27.73;;;10.50;99.90;;;;;;5114547;28;20039;-55
2021/04/29 10:47:29;;;;;;;34.35;27.13;;;10.40;99.90;;;;;;5113692;28;20416;-55
2021/04/29 10:50:07;;;;;;;36.20;26.48;;;10.50;99.90;;;;;;5114476;28;20115;-54
2021/04/29 10:52:49;;;;;;;35.63;27.35;;;10.50;99.90;;;;;;5114399;28;20040;-55
2021/04/29 10:55:31;;;;;;;36.85;27.83;;;10.50;99.90;;;;;;5114420;28;20043;-55
2021/04/29 10:57:59;;;;;;;34.55;28.20;;;10.50;99.90;;;;;;5114024;28;20081;-55
2021/04/29 11:00:27;;;;;;;34.28;28.98;;;10.50;99.90;;;;;;5114176;28;20093;-55
2021/04/29 11:03:03;;;;;;;44.40;28.20;;;10.50;99.90;;;;;;5114048;28;20102;-55
2021/04/29 11:05:30;;;;;;;31.52;25.75;;;10.50;99.90;;;;;;5113885;28;20048;-55
2021/04/29 11:08:12;;;;;;;41.95;28.95;;;10.40;99.90;;;;;;5114058;28;20114;-55
2021/04/29 11:10:39;;;;;;;50.95;33.47;;;10.50;99.90;;;;;;5113748;28;20119;-56
2021/04/29 11:13:08;;;;;;;46.38;33.88;;;10.60;99.90;;;;;;5114042;28;20039;-56
2021/04/29 11:15:38;;;;;;;44.47;32.22;;;10.60;99.90;;;;;;5113809;28;20043;-55
2021/04/29 11:18:19;;;;;;;33.15;27.25;;;10.50;99.90;;;;;;5113984;28;20047;-56
2021/04/29 11:20:58;;;;;;;37.10;29.15;;;10.50;99.90;;;;;;5113881;28;20047;-55
2021/04/29 11:23:40;;;;;;;42.65;32.53;;;10.50;99.90;;;;;;5113819;28;20043;-56
2021/04/29 11:26:11;;;;;;;35.67;27.85;;;10.60;99.90;;;;;;5113398;28;20508;-56
2021/04/29 11:28:37;;;;;;;42.22;29.88;;;10.50;99.90;;;;;;5113609;28;20043;-55
2021/04/29 11:31:04;;;;;;;35.30;28.45;;;10.50;99.90;;;;;;5113563;28;20174;-55
2021/04/29 11:33:43;;;;;;;36.03;28.85;;;10.50;99.90;;;;;;5113623;28;20035;-55
2021/04/29 11:36:16;;;;;;;;;;;10.60;99.90;;;;;;5113961;28;20043;-56
2021/04/29 11:38:55;;;;;;;37.15;28.67;;;10.60;99.90;;;;;;5113561;28;20290;-56
2021/04/29 11:41:21;;;;;;;40.10;30.42;;;10.60;99.90;;;;;;5113277;28;20031;-56
2021/04/29 11:44:06;;;;;;;35.85;27.98;;;10.50;99.90;;;;;;5113454;28;20067;-56
2021/04/29 11:46:34;;;;;;;35.33;26.55;;;10.60;99.90;;;;;;5113390;28;20047;-56
2021/04/29 11:49:05;;;;;;;38.72;27.60;;;10.50;99.90;;;;;;5113708;28;20140;-56
2021/04/29 11:51:34;;;;;;;39.85;25.95;;;10.60;99.90;;;;;;5113175;28;20048;-56
2021/04/29 11:54:05;;;;;;;34.13;24.85;;;10.70;99.90;;;;;;5113172;28;20042;-56
2021/04/29 11:56:38;;;;;;;35.47;26.10;;;10.70;99.90;;;;;;5112967;28;20393;-56
2021/04/29 11:59:05;;;;;;;32.15;23.95;;;10.70;99.90;;;;;;5112773;28;20389;-56
2021/04/29 12:01:31;;;;;;;28.25;24.58;;;10.70;99.90;;;;;;5113104;28;20039;-56
2021/04/29 12:03:57;;;;;;;39.70;28.73;;;10.70;99.90;;;;;;5112884;28;20425;-56
2021/04/29 12:06:23;;;;;;;32.75;26.70;;;10.70;99.90;;;;;;5112780;28;20081;-56
2021/04/29 12:08:49;;;;;;;37.53;26.52;;;10.60;99.90;;;;;;5112793;28;20040;-56
2021/04/29 12:11:15;;;;;;;33.35;25.38;;;10.60;99.90;;;;;;5112754;28;20120;-56
2021/04/29 12:13:54;;;;;;;32.50;26.20;;;10.50;99.90;;;;;;5112611;28;20039;-56
2021/04/29 12:16:29;;;;;;;38.30;27.63;;;10.60;99.90;;;;;;5112759;28;20134;-56
2021/04/29 12:18:56;;;;;;;34.80;26.52;;;10.50;99.90;;;;;;5112603;28;20039;-56
2021/04/29 12:21:24;;;;;;;31.05;24.20;;;10.50;99.90;;;;;;5112684;28;20039;-56
2021/04/29 12:23:58;;;;;;;36.70;25.85;;;10.60;99.90;;;;;;5112404;28;20054;-55
2021/04/29 12:26:30;;;;;;;35.05;26.05;;;10.50;99.90;;;;;;5112503;28;20061;-56
2021/04/29 12:29:00;;;;;;;54.97;27.98;;;10.50;99.90;;;;;;5112607;28;20047;-56
2021/04/29 12:31:27;;;;;;;39.40;26.20;;;10.50;99.90;;;;;;5099606;28;20044;-56
2021/04/29 12:33:55;;;;;;;35.08;25.88;;;10.50;99.90;;;;;;5092141;28;20048;-56
2021/04/29 12:36:22;;;;;;;42.53;25.63;;;10.40;99.90;;;;;;5092230;28;20072;-56